Time;durP1;ratioP1;P1;durP2;ratioP2;P2;SDS_P1;SDS_P2;PMS_P1;PMS_P2;Temp;Humidity;BMP_temperature;BMP_pressure;BME280_temperature;BME280_humidity;BME280_pressure;Samples;Min_cycle;Max_cycle;Signal;HPM_P1;HPM_P2
2021/06/12 00:00:25;;;;;;;2.70;2.50;;;25.00;42.80;;;;;;4949722;28;20243;-40
2021/06/12 00:02:51;;;;;;;2.63;2.42;;;25.00;42.90;;;;;;4955792;28;20205;-46
2021/06/12 00:05:17;;;;;;;3.38;2.40;;;25.00;42.90;;;;;;4949457;28;20541;-40
2021/06/12 00:07:43;;;;;;;2.78;2.58;;;25.00;42.80;;;;;;4949184;28;20279;-45
2021/06/12 00:10:09;;;;;;;2.10;2.00;;;25.00;42.90;;;;;;4950816;28;20212;-45
2021/06/12 00:12:35;;;;;;;2.60;2.40;;;25.00;42.90;;;;;;4947476;29;20225;-41
2021/06/12 00:15:01;;;;;;;2.38;2.17;;;25.00;42.90;;;;;;4950652;28;20273;-42
2021/06/12 00:17:27;;;;;;;2.70;2.50;;;25.00;42.90;;;;;;4947512;28;20894;-45
2021/06/12 00:19:53;;;;;;;2.58;2.42;;;25.00;42.90;;;;;;4947007;28;20291;-46
2021/06/12 00:22:19;;;;;;;2.55;2.45;;;25.00;42.90;;;;;;4945025;28;20224;-39
2021/06/12 00:24:45;;;;;;;2.45;2.25;;;25.00;42.90;;;;;;4945216;28;20260;-43
2021/06/12 00:27:11;;;;;;;2.40;2.28;;;25.00;42.80;;;;;;4948188;28;20224;-41
2021/06/12 00:29:37;;;;;;;2.70;2.50;;;25.00;42.90;;;;;;4949230;28;20638;-42
2021/06/12 00:32:02;;;;;;;2.80;2.50;;;25.00;42.90;;;;;;4946400;28;20296;-46
2021/06/12 00:34:28;;;;;;;2.42;2.28;;;25.00;42.90;;;;;;4953769;28;20197;-45
2021/06/12 00:36:54;;;;;;;2.60;2.40;;;25.00;42.90;;;;;;4950745;28;20205;-40
2021/06/12 00:39:20;;;;;;;2.80;2.60;;;25.00;42.90;;;;;;4949769;28;20236;-45
2021/06/12 00:41:46;;;;;;;2.00;1.90;;;25.00;42.90;;;;;;4948766;28;20721;-43
2021/06/12 00:44:12;;;;;;;2.88;2.67;;;25.00;42.90;;;;;;4949637;28;20205;-43
2021/06/12 00:46:38;;;;;;;2.53;2.33;;;25.00;42.90;;;;;;4946610;28;20209;-40
2021/06/12 00:49:04;;;;;;;2.80;2.60;;;25.00;42.90;;;;;;4948225;28;20542;-42
2021/06/12 00:51:30;;;;;;;2.50;2.30;;;25.00;42.90;;;;;;4942989;28;20344;-42
2021/06/12 00:53:56;;;;;;;2.83;2.63;;;25.00;43.60;;;;;;4945908;28;20205;-45
2021/06/12 00:56:22;;;;;;;2.38;2.17;;;25.00;43.00;;;;;;4945652;29;20822;-46
2021/06/12 00:58:48;;;;;;;2.75;2.55;;;25.00;43.00;;;;;;4947192;28;20240;-43
2021/06/12 01:01:14;;;;;;;2.35;2.20;;;25.00;43.00;;;;;;4947883;28;20205;-44
2021/06/12 01:03:40;;;;;;;2.85;2.65;;;25.00;43.00;;;;;;4948666;28;20212;-43
2021/06/12 01:06:06;;;;;;;2.60;2.40;;;25.00;43.00;;;;;;4948373;28;20224;-43
2021/06/12 01:08:32;;;;;;;2.40;2.20;;;25.00;43.00;;;;;;4950306;28;20236;-45
2021/06/12 01:10:58;;;;;;;2.97;2.50;;;25.00;43.10;;;;;;4944595;28;20214;-45
2021/06/12 01:13:24;;;;;;;2.47;2.28;;;25.00;43.10;;;;;;4936617;29;20217;-42
2021/06/12 01:15:52;;;;;;;2.60;2.40;;;25.00;43.10;;;;;;4948373;28;20225;-39
2021/06/12 01:18:17;;;;;;;2.50;2.30;;;25.00;43.10;;;;;;4944822;28;21141;-40
2021/06/12 01:20:43;;;;;;;2.47;2.30;;;25.00;43.10;;;;;;4947941;28;20209;-42
2021/06/12 01:23:09;;;;;;;3.00;2.80;;;25.00;43.10;;;;;;4946616;28;20552;-47
2021/06/12 01:25:35;;;;;;;2.65;2.45;;;25.00;43.10;;;;;;4950054;28;20220;-43
2021/06/12 01:28:01;;;;;;;2.45;2.25;;;24.90;43.00;;;;;;4946072;28;20244;-44
2021/06/12 01:30:27;;;;;;;2.75;2.53;;;25.00;43.10;;;;;;4948376;29;20227;-40
2021/06/12 01:32:53;;;;;;;3.35;2.40;;;25.00;43.10;;;;;;4947474;29;20225;-44
2021/06/12 01:35:19;;;;;;;2.58;2.35;;;25.00;43.10;;;;;;4947137;28;20212;-43
2021/06/12 01:37:45;;;;;;;2.58;2.38;;;25.00;43.10;;;;;;4941643;29;20269;-40
2021/06/12 01:40:11;;;;;;;2.80;2.60;;;25.00;43.20;;;;;;4949261;28;20765;-46
2021/06/12 01:42:37;;;;;;;2.60;2.40;;;25.00;43.10;;;;;;4945053;28;20201;-42
2021/06/12 01:45:03;;;;;;;2.60;2.40;;;25.00;43.10;;;;;;4948333;28;20677;-42
2021/06/12 01:47:29;;;;;;;2.50;2.30;;;25.00;43.10;;;;;;4946350;28;20221;-43
2021/06/12 01:49:55;;;;;;;2.13;2.03;;;25.00;43.10;;;;;;4947955;28;21711;-41
2021/06/12 01:52:21;;;;;;;2.50;2.30;;;25.00;43.20;;;;;;4944260;28;20851;-40
2021/06/12 01:54:47;;;;;;;2.85;2.40;;;25.00;43.10;;;;;;4949685;28;20201;-43
2021/06/12 01:57:13;;;;;;;2.70;2.50;;;25.00;43.20;;;;;;4947411;28;20222;-44
2021/06/12 01:59:39;;;;;;;2.30;2.10;;;25.00;43.20;;;;;;4946505;28;20296;-41
2021/06/12 02:02:05;;;;;;;2.53;2.30;;;25.00;43.20;;;;;;4950879;28;20903;-43
2021/06/12 02:04:31;;;;;;;2.20;2.10;;;25.00;43.20;;;;;;4953989;28;20201;-43
2021/06/12 02:07:00;;;;;;;2.50;2.30;;;25.00;43.20;;;;;;4949781;28;20205;-44
2021/06/12 02:09:26;;;;;;;2.92;2.58;;;25.00;43.20;;;;;;4952812;28;20673;-40
2021/06/12 02:11:52;;;;;;;2.58;2.38;;;25.00;43.90;;;;;;4948421;28;20212;-45
2021/06/12 02:14:18;;;;;;;2.45;2.25;;;25.00;43.20;;;;;;4948409;28;20674;-44
2021/06/12 02:16:44;;;;;;;2.70;2.50;;;25.00;43.20;;;;;;4949394;28;20228;-45
2021/06/12 02:19:10;;;;;;;2.20;2.00;;;25.00;43.20;;;;;;4951563;28;20240;-44
2021/06/12 02:21:36;;;;;;;2.60;2.40;;;25.00;43.20;;;;;;4951306;28;20647;-47
2021/06/12 02:24:02;;;;;;;2.47;2.38;;;25.00;43.10;;;;;;4953702;28;20224;-42
2021/06/12 02:26:27;;;;;;;2.72;2.53;;;25.00;43.20;;;;;;4950210;28;20216;-43
2021/06/12 02:28:53;;;;;;;2.42;2.22;;;25.00;43.20;;;;;;4943156;28;20324;-41
2021/06/12 02:31:19;;;;;;;2.50;2.30;;;25.00;43.20;;;;;;4953644;28;20572;-41
2021/06/12 02:33:45;;;;;;;2.63;2.42;;;25.00;43.10;;;;;;4951721;28;20212;-45
2021/06/12 02:36:11;;;;;;;2.70;2.50;;;25.00;43.20;;;;;;4950914;28;20217;-41
2021/06/12 02:38:37;;;;;;;2.50;2.30;;;25.00;43.20;;;;;;4949204;28;20236;-43
2021/06/12 02:41:03;;;;;;;2.15;1.98;;;24.90;43.10;;;;;;4950901;28;20561;-40
2021/06/12 02:43:29;;;;;;;2.58;2.38;;;25.00;43.20;;;;;;4947069;28;20205;-46
2021/06/12 02:45:55;;;;;;;2.70;2.50;;;25.00;43.10;;;;;;4949260;28;20298;-42
2021/06/12 02:48:21;;;;;;;2.65;2.45;;;25.00;43.10;;;;;;4949207;28;20240;-45
2021/06/12 02:50:47;;;;;;;2.58;2.38;;;24.90;43.10;;;;;;4955089;28;20610;-43
2021/06/12 02:53:13;;;;;;;3.40;2.42;;;25.00;43.20;;;;;;4948287;28;20296;-45
2021/06/12 02:55:39;;;;;;;2.60;2.40;;;25.00;43.20;;;;;;4938446;29;20269;-42
2021/06/12 02:58:05;;;;;;;2.33;2.13;;;24.90;43.10;;;;;;4948423;28;20228;-43
2021/06/12 03:00:31;;;;;;;2.35;2.15;;;25.00;43.20;;;;;;4951361;28;20292;-45
2021/06/12 03:02:57;;;;;;;2.30;2.15;;;25.00;43.20;;;;;;4947112;28;20213;-42
2021/06/12 03:05:23;;;;;;;3.28;3.00;;;25.00;43.20;;;;;;4951117;28;20205;-45
2021/06/12 03:07:49;;;;;;;2.33;2.13;;;24.90;43.10;;;;;;4957134;28;20235;-40
2021/06/12 03:10:15;;;;;;;2.55;2.35;;;25.00;43.20;;;;;;4948871;28;20209;-43
2021/06/12 03:12:41;;;;;;;2.53;2.33;;;25.00;43.20;;;;;;4951513;28;20209;-44
2021/06/12 03:15:07;;;;;;;2.67;2.47;;;25.00;43.20;;;;;;4957141;28;20662;-42
2021/06/12 03:17:32;;;;;;;2.50;2.30;;;25.00;43.20;;;;;;4949498;29;20221;-44
2021/06/12 03:19:58;;;;;;;2.67;2.47;;;24.90;43.10;;;;;;4951333;28;20318;-44
2021/06/12 03:22:24;;;;;;;2.80;2.60;;;25.00;43.20;;;;;;4950091;28;20216;-41
2021/06/12 03:24:50;;;;;;;3.28;2.30;;;25.00;43.20;;;;;;4949936;28;20212;-42
2021/06/12 03:27:16;;;;;;;2.45;2.25;;;25.00;43.20;;;;;;4947485;28;20601;-40
2021/06/12 03:29:42;;;;;;;2.05;1.95;;;25.00;43.20;;;;;;4950613;28;20212;-41
2021/06/12 03:32:08;;;;;;;2.60;2.40;;;24.90;43.20;;;;;;4946702;28;20206;-44
2021/06/12 03:34:34;;;;;;;2.63;2.42;;;24.90;43.20;;;;;;4950088;28;20201;-42
2021/06/12 03:37:00;;;;;;;2.50;2.30;;;25.00;43.20;;;;;;4948350;28;20777;-44
2021/06/12 03:39:26;;;;;;;2.50;2.30;;;25.00;43.20;;;;;;4951439;29;20236;-42
2021/06/12 03:41:52;;;;;;;2.30;2.10;;;24.90;43.20;;;;;;4951514;28;20209;-42
2021/06/12 03:44:18;;;;;;;2.47;2.28;;;25.00;43.20;;;;;;4948746;28;20209;-42
2021/06/12 03:46:44;;;;;;;2.35;2.15;;;25.00;43.20;;;;;;4949212;28;20251;-43
2021/06/12 03:49:10;;;;;;;2.25;2.08;;;25.00;43.30;;;;;;4951427;28;20849;-44
2021/06/12 03:51:36;;;;;;;3.15;2.20;;;24.90;43.20;;;;;;4948279;28;20209;-44
2021/06/12 03:54:02;;;;;;;2.60;2.40;;;25.00;43.20;;;;;;4947010;28;20201;-41
2021/06/12 03:56:28;;;;;;;2.50;2.33;;;25.00;43.20;;;;;;4949035;28;20690;-45
2021/06/12 03:58:54;;;;;;;2.55;2.35;;;24.90;43.20;;;;;;4949447;28;20264;-45
2021/06/12 04:01:20;;;;;;;2.50;2.30;;;24.90;43.20;;;;;;4948298;28;20229;-41
2021/06/12 04:03:46;;;;;;;2.55;2.35;;;25.00;43.20;;;;;;4947724;28;20214;-44
2021/06/12 04:06:11;;;;;;;2.17;2.08;;;24.90;43.20;;;;;;4952330;28;20214;-45
2021/06/12 04:08:37;;;;;;;2.67;2.47;;;24.90;43.10;;;;;;4947285;28;20213;-40
2021/06/12 04:11:03;;;;;;;2.67;2.42;;;25.00;43.20;;;;;;4945632;29;20566;-43
2021/06/12 04:13:29;;;;;;;2.33;2.13;;;25.00;43.30;;;;;;4946960;28;20308;-44
2021/06/12 04:15:57;;;;;;;2.20;2.10;;;25.00;43.60;;;;;;4949842;28;20297;-42
2021/06/12 04:18:23;;;;;;;2.60;2.40;;;25.00;43.60;;;;;;4946574;28;20205;-44
2021/06/12 04:20:49;;;;;;;2.47;2.28;;;25.00;43.50;;;;;;4949510;28;20220;-44
2021/06/12 04:23:15;;;;;;;3.03;2.17;;;24.90;43.60;;;;;;4948926;28;20237;-44
2021/06/12 04:25:41;;;;;;;3.30;2.20;;;24.90;43.50;;;;;;4947556;28;20198;-45
2021/06/12 04:28:07;;;;;;;2.50;2.30;;;24.90;43.50;;;;;;4948928;28;20228;-40
2021/06/12 04:30:33;;;;;;;3.65;2.50;;;25.00;43.50;;;;;;4949763;28;20208;-44
2021/06/12 04:32:59;;;;;;;2.72;2.30;;;24.90;43.40;;;;;;4950627;28;20217;-45
2021/06/12 04:35:25;;;;;;;2.35;2.25;;;24.90;43.40;;;;;;4949664;28;20647;-44
2021/06/12 04:37:53;;;;;;;2.30;2.05;;;24.90;43.40;;;;;;4946570;28;20222;-41
2021/06/12 04:40:19;;;;;;;2.45;2.25;;;25.00;43.50;;;;;;4942667;28;20248;-45
2021/06/12 04:42:45;;;;;;;2.90;1.95;;;25.00;43.40;;;;;;4947978;28;20201;-46
2021/06/12 04:45:11;;;;;;;2.28;2.08;;;24.90;43.40;;;;;;4945195;29;20212;-39
2021/06/12 04:47:37;;;;;;;2.67;2.47;;;25.00;43.40;;;;;;4947253;29;20643;-39
2021/06/12 04:50:03;;;;;;;2.70;2.50;;;24.90;43.30;;;;;;4952158;28;20284;-41
2021/06/12 04:52:29;;;;;;;2.70;2.50;;;25.00;43.30;;;;;;4949771;28;20271;-43
2021/06/12 04:54:55;;;;;;;2.85;2.28;;;24.90;43.30;;;;;;4945110;28;20546;-42
2021/06/12 04:57:21;;;;;;;2.53;2.33;;;25.00;43.30;;;;;;4945912;28;20225;-40
2021/06/12 04:59:47;;;;;;;2.50;2.30;;;25.00;43.30;;;;;;4942641;28;20224;-43
2021/06/12 05:02:13;;;;;;;2.17;2.08;;;25.00;43.30;;;;;;4946588;29;20206;-42
2021/06/12 05:04:39;;;;;;;2.58;2.35;;;25.00;43.30;;;;;;4946038;29;20208;-47
2021/06/12 05:07:05;;;;;;;2.15;2.05;;;25.00;43.30;;;;;;4950347;28;20651;-44
2021/06/12 05:09:31;;;;;;;2.38;2.25;;;24.90;43.20;;;;;;4953492;28;20216;-43
2021/06/12 05:11:57;;;;;;;2.55;2.35;;;25.00;43.30;;;;;;4947689;28;20217;-42
2021/06/12 05:14:23;;;;;;;2.00;1.88;;;25.00;43.20;;;;;;4944628;28;20763;-42
2021/06/12 05:16:49;;;;;;;2.30;2.10;;;25.00;43.20;;;;;;4949381;28;20240;-45
2021/06/12 05:19:15;;;;;;;2.20;2.10;;;25.00;43.10;;;;;;4944578;28;20233;-44
2021/06/12 05:21:41;;;;;;;4.03;2.67;;;25.00;43.10;;;;;;4947419;28;20211;-43
2021/06/12 05:24:07;;;;;;;2.42;2.20;;;25.00;43.30;;;;;;4946487;28;20213;-45
2021/06/12 05:26:33;;;;;;;2.88;2.38;;;25.00;43.30;;;;;;4948197;28;20224;-40
2021/06/12 05:28:59;;;;;;;2.80;2.60;;;25.00;43.40;;;;;;4945916;28;20562;-41
2021/06/12 05:31:25;;;;;;;2.60;2.20;;;25.00;43.30;;;;;;4950525;28;20205;-42
2021/06/12 05:33:50;;;;;;;2.20;2.10;;;25.00;43.30;;;;;;4949251;28;20201;-42
2021/06/12 05:36:17;;;;;;;2.70;2.00;;;24.90;43.30;;;;;;4948731;28;20228;-44
2021/06/12 05:38:43;;;;;;;2.28;2.13;;;25.00;43.30;;;;;;4950512;28;20233;-44
2021/06/12 05:41:08;;;;;;;2.65;2.45;;;25.00;43.30;;;;;;4949451;28;20556;-39
2021/06/12 05:43:34;;;;;;;2.25;2.13;;;25.00;43.30;;;;;;4948548;28;20205;-39
2021/06/12 05:46:01;;;;;;;2.25;2.10;;;25.00;43.30;;;;;;4948353;28;20236;-39
2021/06/12 05:48:27;;;;;;;3.38;2.30;;;25.00;43.20;;;;;;4947570;28;20766;-43
2021/06/12 05:50:53;;;;;;;2.88;2.15;;;25.00;43.30;;;;;;4951982;28;20216;-39
2021/06/12 05:53:19;;;;;;;2.33;2.13;;;25.00;43.20;;;;;;4948809;28;20208;-42
2021/06/12 05:55:45;;;;;;;2.50;2.30;;;25.00;43.20;;;;;;4948748;28;20201;-42
2021/06/12 05:58:11;;;;;;;2.35;2.15;;;25.00;43.10;;;;;;4951013;28;20213;-45
2021/06/12 06:00:37;;;;;;;2.30;2.10;;;25.00;43.20;;;;;;4947860;28;20225;-43
2021/06/12 06:03:03;;;;;;;2.10;1.90;;;25.00;43.20;;;;;;4946802;29;20212;-41
2021/06/12 06:05:29;;;;;;;3.25;2.42;;;25.00;43.20;;;;;;4948505;28;20208;-45
2021/06/12 06:07:55;;;;;;;2.28;2.15;;;25.00;43.20;;;;;;4948888;28;20232;-44
2021/06/12 06:10:21;;;;;;;2.78;2.55;;;25.00;43.20;;;;;;4948050;28;20205;-42
2021/06/12 06:12:47;;;;;;;2.30;2.08;;;25.00;43.10;;;;;;4946633;28;77455;-40
2021/06/12 06:15:13;;;;;;;2.08;1.90;;;25.00;43.20;;;;;;4950445;28;20285;-41
2021/06/12 06:17:39;;;;;;;2.10;2.00;;;25.00;43.20;;;;;;4946941;28;20225;-40
2021/06/12 06:20:05;;;;;;;2.65;2.30;;;25.00;43.20;;;;;;4947690;28;20241;-46
2021/06/12 06:22:31;;;;;;;2.47;2.28;;;25.00;43.20;;;;;;4947383;28;20238;-47
2021/06/12 06:24:57;;;;;;;2.60;2.13;;;25.00;43.10;;;;;;4951272;28;20669;-41
2021/06/12 06:27:23;;;;;;;2.50;2.30;;;25.00;43.10;;;;;;4945583;28;20221;-43
2021/06/12 06:29:49;;;;;;;2.53;2.30;;;25.00;43.20;;;;;;4950877;28;20226;-40
2021/06/12 06:32:15;;;;;;;2.05;1.95;;;25.00;43.20;;;;;;4949001;28;20217;-40
2021/06/12 06:34:41;;;;;;;2.30;2.10;;;25.00;43.20;;;;;;4948386;28;20202;-45
2021/06/12 06:37:07;;;;;;;2.17;2.08;;;25.00;43.20;;;;;;4948965;28;20233;-40
2021/06/12 06:39:33;;;;;;;2.30;2.10;;;25.00;43.20;;;;;;4948348;28;20263;-42
2021/06/12 06:41:59;;;;;;;2.40;2.10;;;25.00;43.10;;;;;;4944676;28;20201;-41
2021/06/12 06:44:25;;;;;;;2.42;2.30;;;25.00;43.10;;;;;;4943080;28;20209;-45
2021/06/12 06:46:52;;;;;;;2.67;2.30;;;25.00;43.10;;;;;;4948964;28;20233;-44
2021/06/12 06:49:18;;;;;;;2.22;1.95;;;25.00;43.20;;;;;;4949292;28;20293;-41
2021/06/12 06:51:44;;;;;;;2.35;2.15;;;25.00;43.10;;;;;;4950149;28;20922;-40
2021/06/12 06:54:10;;;;;;;2.03;1.92;;;25.00;43.70;;;;;;4949315;29;20201;-41
2021/06/12 06:56:36;;;;;;;2.10;1.90;;;25.00;43.10;;;;;;4947630;29;20220;-44
2021/06/12 06:59:02;;;;;;;2.40;2.20;;;25.00;43.10;;;;;;4948321;29;20624;-41
2021/06/12 07:01:29;;;;;;;3.55;2.22;;;25.00;43.00;;;;;;4949491;28;20228;-44
2021/06/12 07:03:55;;;;;;;2.10;2.00;;;25.00;43.00;;;;;;4946524;28;20216;-39
2021/06/12 07:06:21;;;;;;;2.50;2.30;;;25.10;42.70;;;;;;4944778;28;20689;-40
2021/06/12 07:08:47;;;;;;;3.85;2.70;;;25.10;43.10;;;;;;4950052;28;20573;-39
2021/06/12 07:11:13;;;;;;;3.38;2.38;;;25.10;43.50;;;;;;4948331;28;20319;-39
2021/06/12 07:13:39;;;;;;;2.33;2.13;;;25.10;42.80;;;;;;4951537;28;20205;-39
2021/06/12 07:16:05;;;;;;;3.30;2.38;;;25.20;42.80;;;;;;4947299;28;20228;-40
2021/06/12 07:18:31;;;;;;;3.00;2.15;;;25.20;42.70;;;;;;4945966;29;20207;-41
2021/06/12 07:20:57;;;;;;;2.42;2.20;;;25.20;43.40;;;;;;4947092;28;20217;-39
2021/06/12 07:23:23;;;;;;;4.38;2.40;;;25.10;42.80;;;;;;4949451;28;20209;-40
2021/06/12 07:25:50;;;;;;;3.60;2.40;;;25.20;42.90;;;;;;4948525;28;20205;-39
2021/06/12 07:28:16;;;;;;;2.42;2.03;;;25.10;42.80;;;;;;4946861;28;20388;-40
2021/06/12 07:30:42;;;;;;;4.22;2.40;;;25.20;43.20;;;;;;4950042;28;20212;-40
2021/06/12 07:33:08;;;;;;;2.50;2.20;;;25.20;43.60;;;;;;4945350;28;20741;-39
2021/06/12 07:35:34;;;;;;;3.63;2.47;;;25.20;43.60;;;;;;4951079;28;20228;-41
2021/06/12 07:38:00;;;;;;;8.60;2.50;;;25.10;44.20;;;;;;4948203;28;20359;-39
2021/06/12 07:40:26;;;;;;;4.82;3.20;;;25.20;43.90;;;;;;4951168;28;20233;-43
2021/06/12 07:42:52;;;;;;;5.50;4.22;;;25.20;43.60;;;;;;4951373;28;20232;-39
2021/06/12 07:45:18;;;;;;;6.13;4.50;;;24.90;42.00;;;;;;4948056;28;20212;-42
2021/06/12 07:47:44;;;;;;;5.38;4.43;;;24.40;40.00;;;;;;4947354;29;20240;-40
2021/06/12 07:50:10;;;;;;;5.03;4.15;;;24.10;41.50;;;;;;4950663;28;20212;-40
2021/06/12 07:52:37;;;;;;;6.60;4.60;;;24.50;42.00;;;;;;4946451;28;20379;-41
2021/06/12 07:55:03;;;;;;;7.10;4.93;;;24.70;41.80;;;;;;4951533;28;20209;-40
2021/06/12 07:57:29;;;;;;;5.50;4.15;;;24.90;41.80;;;;;;4959404;28;20594;-40
2021/06/12 07:59:55;;;;;;;5.07;4.50;;;24.90;41.90;;;;;;4950947;28;20233;-42
2021/06/12 08:02:21;;;;;;;5.07;4.40;;;25.00;42.10;;;;;;4951817;28;20285;-42
2021/06/12 08:04:47;;;;;;;6.05;4.43;;;25.00;42.10;;;;;;4948221;28;20205;-47
2021/06/12 08:07:15;;;;;;;4.88;4.47;;;25.10;42.20;;;;;;4949731;29;20304;-42
2021/06/12 08:09:41;;;;;;;4.90;4.32;;;25.10;42.10;;;;;;4950400;28;20202;-44
2021/06/12 08:12:07;;;;;;;4.78;4.15;;;25.10;42.20;;;;;;4948826;28;20222;-45
2021/06/12 08:14:33;;;;;;;5.07;4.03;;;25.10;42.70;;;;;;4943137;28;20221;-41
2021/06/12 08:16:59;;;;;;;5.03;4.53;;;25.20;42.80;;;;;;4943482;29;20225;-48
2021/06/12 08:19:25;;;;;;;4.70;4.18;;;25.20;42.70;;;;;;4950759;28;20752;-45
2021/06/12 08:21:51;;;;;;;7.85;4.65;;;25.20;42.70;;;;;;4947830;28;20213;-42
2021/06/12 08:24:17;;;;;;;4.72;4.20;;;25.20;42.80;;;;;;4939884;29;20225;-44
2021/06/12 08:26:43;;;;;;;6.75;4.20;;;25.30;43.00;;;;;;4946820;28;20690;-44
2021/06/12 08:29:09;;;;;;;4.50;4.10;;;25.30;43.00;;;;;;4949271;28;20239;-41
2021/06/12 08:31:35;;;;;;;6.00;4.55;;;25.30;43.10;;;;;;4944695;28;20279;-44
2021/06/12 08:34:01;;;;;;;4.95;4.45;;;25.30;44.00;;;;;;4945046;28;20669;-45
2021/06/12 08:36:28;;;;;;;4.93;4.30;;;25.40;43.60;;;;;;4949898;28;20647;-43
2021/06/12 08:38:54;;;;;;;4.43;4.03;;;25.30;43.10;;;;;;4951511;28;20232;-44
2021/06/12 08:41:20;;;;;;;7.18;4.60;;;25.30;43.10;;;;;;4951483;28;20213;-45
2021/06/12 08:43:46;;;;;;;4.45;4.10;;;25.30;43.20;;;;;;4949267;28;20205;-40
2021/06/12 08:46:12;;;;;;;5.65;4.22;;;25.30;43.10;;;;;;4948007;28;20221;-41
2021/06/12 08:48:38;;;;;;;4.70;4.00;;;25.30;43.00;;;;;;4951115;28;20259;-39
2021/06/12 08:51:04;;;;;;;5.15;4.30;;;25.30;42.90;;;;;;4950429;28;20213;-40
2021/06/12 08:53:32;;;;;;;5.25;4.63;;;25.30;42.70;;;;;;4950224;28;20580;-39
2021/06/12 08:55:58;;;;;;;4.82;3.95;;;25.30;42.70;;;;;;4949457;28;20660;-40
2021/06/12 08:58:24;;;;;;;8.02;4.68;;;25.30;42.70;;;;;;4940584;28;20240;-39
2021/06/12 09:00:50;;;;;;;4.53;4.13;;;25.30;43.00;;;;;;4949421;28;20279;-41
2021/06/12 09:03:16;;;;;;;4.85;3.85;;;25.30;43.10;;;;;;4946408;28;20216;-42
2021/06/12 09:05:42;;;;;;;4.78;4.20;;;25.30;42.80;;;;;;4948316;28;20581;-40
2021/06/12 09:08:08;;;;;;;4.40;4.00;;;25.30;43.00;;;;;;4933190;29;20233;-39
2021/06/12 09:10:34;;;;;;;4.32;4.03;;;25.30;42.90;;;;;;4936320;29;20213;-39
2021/06/12 09:13:01;;;;;;;5.18;4.22;;;25.30;42.70;;;;;;4939609;29;20525;-39
2021/06/12 09:15:27;;;;;;;5.60;4.10;;;25.30;42.60;;;;;;4956280;28;20248;-41
2021/06/12 09:17:53;;;;;;;5.88;3.70;;;25.30;42.60;;;;;;4955342;28;20223;-43
2021/06/12 09:20:19;;;;;;;4.72;4.18;;;25.30;42.60;;;;;;4956056;28;20237;-40
2021/06/12 09:22:45;;;;;;;4.50;4.07;;;25.30;42.60;;;;;;4956847;28;20209;-41
2021/06/12 09:25:11;;;;;;;4.10;3.70;;;25.30;42.60;;;;;;4955500;28;20233;-44
2021/06/12 09:27:37;;;;;;;4.35;3.97;;;25.30;42.50;;;;;;4955610;28;20209;-42
2021/06/12 09:30:03;;;;;;;4.28;3.97;;;25.30;42.50;;;;;;4955924;28;20205;-42
2021/06/12 09:32:29;;;;;;;4.15;3.83;;;25.30;42.60;;;;;;4943557;28;20225;-39
2021/06/12 09:34:55;;;;;;;4.78;3.97;;;25.30;42.50;;;;;;4952383;28;20655;-39
2021/06/12 09:37:22;;;;;;;4.35;3.95;;;25.30;42.50;;;;;;4955464;28;20232;-40
2021/06/12 09:39:48;;;;;;;4.35;3.95;;;25.30;42.50;;;;;;4955909;28;20324;-42
2021/06/12 09:42:14;;;;;;;4.18;3.70;;;25.30;42.50;;;;;;4955627;28;20671;-41
2021/06/12 09:44:40;;;;;;;4.35;3.95;;;25.30;42.40;;;;;;4955568;28;20326;-42
2021/06/12 09:47:06;;;;;;;3.88;3.55;;;25.20;42.40;;;;;;4954878;28;20221;-41
2021/06/12 09:49:32;;;;;;;4.75;4.35;;;25.30;42.40;;;;;;4955548;28;20730;-40
2021/06/12 09:51:58;;;;;;;4.30;3.90;;;25.30;42.40;;;;;;4955605;28;20591;-41
2021/06/12 09:54:24;;;;;;;4.43;4.13;;;25.30;42.50;;;;;;4954958;28;20201;-43
2021/06/12 09:56:50;;;;;;;4.13;3.80;;;25.30;42.40;;;;;;4955318;28;20237;-42
2021/06/12 09:59:17;;;;;;;3.92;3.63;;;25.30;42.40;;;;;;4955736;28;20603;-39
2021/06/12 10:01:43;;;;;;;4.07;3.78;;;25.30;42.40;;;;;;4955514;28;20202;-43
2021/06/12 10:04:09;;;;;;;4.10;3.65;;;25.30;42.40;;;;;;4955163;28;20252;-45
2021/06/12 10:06:35;;;;;;;4.78;3.70;;;25.30;42.40;;;;;;4952861;28;20222;-41
2021/06/12 10:09:01;;;;;;;3.80;3.50;;;25.30;42.40;;;;;;4954463;28;20272;-42
2021/06/12 10:11:27;;;;;;;3.88;3.58;;;25.30;42.40;;;;;;4955253;28;20653;-40
2021/06/12 10:13:53;;;;;;;3.85;3.55;;;25.20;42.30;;;;;;4952746;28;20209;-44
2021/06/12 10:16:19;;;;;;;3.92;3.63;;;25.30;42.50;;;;;;4951108;28;20240;-43
2021/06/12 10:18:45;;;;;;;4.07;3.78;;;25.20;42.30;;;;;;4943737;29;20540;-39
2021/06/12 10:21:11;;;;;;;4.28;3.90;;;25.30;42.40;;;;;;4951379;28;20214;-43
2021/06/12 10:23:37;;;;;;;4.25;3.75;;;25.30;42.40;;;;;;4951503;28;20253;-45
2021/06/12 10:26:04;;;;;;;4.03;3.63;;;25.30;42.80;;;;;;4952608;28;20693;-41
2021/06/12 10:28:30;;;;;;;3.70;3.40;;;25.30;42.60;;;;;;4949357;28;20280;-41
2021/06/12 10:30:56;;;;;;;3.90;3.58;;;25.30;42.70;;;;;;4946587;28;20213;-41
2021/06/12 10:33:22;;;;;;;4.05;3.75;;;25.30;43.10;;;;;;4941986;28;20206;-42
2021/06/12 10:35:48;;;;;;;4.65;4.05;;;25.40;43.10;;;;;;4952474;29;20229;-43
2021/06/12 10:38:15;;;;;;;3.83;3.50;;;25.30;43.20;;;;;;4946270;28;20202;-43
2021/06/12 10:40:42;;;;;;;3.92;3.35;;;25.30;43.30;;;;;;4948914;29;20344;-42
2021/06/12 10:43:08;;;;;;;4.22;3.83;;;25.30;44.00;;;;;;4954265;28;20209;-46
2021/06/12 10:45:34;;;;;;;4.05;3.65;;;25.30;43.50;;;;;;4954298;28;20225;-47
2021/06/12 10:47:59;;;;;;;4.50;4.10;;;25.30;43.30;;;;;;4954441;28;20244;-43
2021/06/12 10:50:25;;;;;;;4.50;4.10;;;25.30;43.30;;;;;;4954392;28;20209;-44
2021/06/12 10:52:51;;;;;;;5.80;3.95;;;25.30;43.40;;;;;;4948800;29;20569;-42
2021/06/12 10:55:17;;;;;;;5.18;3.38;;;25.30;43.30;;;;;;4953993;29;20244;-44
2021/06/12 10:57:43;;;;;;;3.72;3.42;;;25.30;43.20;;;;;;4954155;28;20209;-43
2021/06/12 11:00:09;;;;;;;4.30;3.90;;;25.30;43.10;;;;;;4952981;28;20558;-47
2021/06/12 11:02:41;;;;;;;3.42;3.15;;;25.40;43.20;;;;;;4945105;28;20260;-43
2021/06/12 11:05:10;;;;;;;8.25;4.15;;;25.30;43.20;;;;;;4952724;28;20372;-40
2021/06/12 11:07:36;;;;;;;4.50;3.80;;;25.40;43.00;;;;;;4953966;28;20666;-40
2021/06/12 11:10:02;;;;;;;3.78;3.45;;;25.40;43.00;;;;;;4948646;28;20271;-40
2021/06/12 11:12:30;;;;;;;5.13;3.85;;;25.40;43.10;;;;;;4949494;28;20600;-44
2021/06/12 11:14:56;;;;;;;4.88;3.88;;;25.40;43.20;;;;;;4952217;28;20312;-42
2021/06/12 11:17:22;;;;;;;4.90;4.18;;;25.40;43.40;;;;;;4953114;28;20655;-43
2021/06/12 11:19:48;;;;;;;9.95;4.30;;;25.40;43.80;;;;;;4953702;28;20229;-43
2021/06/12 11:22:14;;;;;;;16.35;5.75;;;25.40;44.00;;;;;;4953443;28;20201;-42
2021/06/12 11:24:41;;;;;;;11.68;4.50;;;25.40;44.10;;;;;;4953230;28;20229;-43
2021/06/12 11:27:07;;;;;;;13.35;5.32;;;25.40;44.10;;;;;;4953557;28;20284;-41
2021/06/12 11:29:33;;;;;;;7.70;4.00;;;25.40;44.00;;;;;;4946507;28;20205;-45
2021/06/12 11:31:59;;;;;;;12.45;4.60;;;25.40;43.90;;;;;;4952287;28;20236;-43
2021/06/12 11:34:25;;;;;;;7.35;4.57;;;25.40;43.90;;;;;;4949860;28;20292;-42
2021/06/12 11:36:51;;;;;;;12.90;4.60;;;25.40;44.00;;;;;;4939802;28;20201;-41
2021/06/12 11:39:17;;;;;;;8.98;4.45;;;25.40;44.10;;;;;;4952659;28;20256;-44
2021/06/12 11:41:43;;;;;;;7.95;4.03;;;25.40;44.00;;;;;;4950233;28;20264;-40
2021/06/12 11:44:09;;;;;;;8.98;4.35;;;25.30;44.00;;;;;;4950673;28;20208;-44
2021/06/12 11:46:35;;;;;;;7.28;3.63;;;25.30;44.00;;;;;;4949999;28;20205;-43
2021/06/12 11:49:01;;;;;;;6.55;3.90;;;25.30;44.00;;;;;;4952810;29;20684;-46
2021/06/12 11:51:30;;;;;;;9.80;3.97;;;25.30;44.00;;;;;;4947374;28;20265;-45
2021/06/12 11:53:56;;;;;;;6.25;3.70;;;25.30;44.00;;;;;;4952594;28;20292;-46
2021/06/12 11:56:22;;;;;;;5.68;3.50;;;25.40;44.00;;;;;;4955341;28;20224;-47
2021/06/12 11:58:48;;;;;;;6.55;4.03;;;25.40;44.00;;;;;;4952339;28;20209;-45
2021/06/12 12:01:14;;;;;;;8.30;3.72;;;25.40;44.10;;;;;;4943550;28;20209;-47
2021/06/12 12:03:40;;;;;;;6.55;3.70;;;25.40;44.10;;;;;;4941838;28;20535;-44
2021/06/12 12:06:06;;;;;;;5.25;3.95;;;25.40;44.00;;;;;;4947676;28;20243;-43
2021/06/12 12:08:32;;;;;;;4.93;3.22;;;25.40;44.00;;;;;;4945159;28;20209;-43
2021/06/12 12:10:58;;;;;;;5.85;3.85;;;25.40;44.00;;;;;;4950195;28;20208;-42
2021/06/12 12:13:24;;;;;;;5.57;3.65;;;25.40;44.10;;;;;;4946668;28;20934;-43
2021/06/12 12:15:50;;;;;;;5.28;3.72;;;25.40;44.00;;;;;;4945801;28;20221;-42
2021/06/12 12:18:16;;;;;;;6.95;3.30;;;25.40;44.40;;;;;;4948968;28;20193;-41
2021/06/12 12:20:42;;;;;;;6.30;3.97;;;25.40;44.40;;;;;;4951536;29;20574;-41
2021/06/12 12:23:08;;;;;;;6.63;3.80;;;25.40;44.30;;;;;;4943656;29;20209;-42
2021/06/12 12:25:34;;;;;;;6.78;3.60;;;25.30;44.60;;;;;;4952690;28;20244;-41
2021/06/12 12:28:00;;;;;;;7.18;4.25;;;25.40;44.50;;;;;;4952121;28;20202;-40
2021/06/12 12:30:26;;;;;;;5.30;3.88;;;25.30;44.40;;;;;;4957397;28;20277;-45
2021/06/12 12:32:52;;;;;;;3.85;3.25;;;25.40;44.40;;;;;;4952773;28;20209;-43
2021/06/12 12:35:18;;;;;;;7.22;3.40;;;25.40;44.00;;;;;;4952696;28;20319;-43
2021/06/12 12:37:44;;;;;;;3.53;3.08;;;25.40;44.40;;;;;;4947544;28;20568;-42